sensor_id;sensor_type;location;lat;lon;timestamp;P1;durP1;ratioP1;P2;durP2;ratioP2
19402;SDS011;9837;48.888;8.998;2024-01-27T00:01:39;7.10;;;2.90;;
19402;SDS011;9837;48.888;8.998;2024-01-27T00:04:04;3.77;;;2.50;;
19402;SDS011;9837;48.888;8.998;2024-01-27T00:06:30;6.17;;;2.50;;
19402;SDS011;9837;48.888;8.998;2024-01-27T00:08:55;6.90;;;2.87;;
19402;SDS011;9837;48.888;8.998;2024-01-27T00:11:21;3.77;;;2.50;;
19402;SDS011;9837;48.888;8.998;2024-01-27T00:13:49;8.37;;;3.10;;
19402;SDS011;9837;48.888;8.998;2024-01-27T00:16:14;10.00;;;3.23;;
19402;SDS011;9837;48.888;8.998;2024-01-27T00:18:40;6.43;;;3.00;;
19402;SDS011;9837;48.888;8.998;2024-01-27T00:21:06;6.57;;;3.07;;
19402;SDS011;9837;48.888;8.998;2024-01-27T00:23:31;5.73;;;3.00;;
19402;SDS011;9837;48.888;8.998;2024-01-27T00:25:57;8.10;;;2.90;;
19402;SDS011;9837;48.888;8.998;2024-01-27T00:28:23;4.87;;;2.77;;
19402;SDS011;9837;48.888;8.998;2024-01-27T00:30:49;7.07;;;2.93;;
19402;SDS011;9837;48.888;8.998;2024-01-27T00:33:15;5.20;;;2.60;;
19402;SDS011;9837;48.888;8.998;2024-01-27T00:35:40;10.27;;;2.90;;
19402;SDS011;9837;48.888;8.998;2024-01-27T00:38:06;5.87;;;2.33;;
19402;SDS011;9837;48.888;8.998;2024-01-27T00:40:32;6.07;;;2.77;;
19402;SDS011;9837;48.888;8.998;2024-01-27T00:42:57;4.70;;;2.63;;
19402;SDS011;9837;48.888;8.998;2024-01-27T00:45:23;7.47;;;3.07;;
19402;SDS011;9837;48.888;8.998;2024-01-27T00:47:49;12.93;;;3.00;;
19402;SDS011;9837;48.888;8.998;2024-01-27T00:50:15;6.33;;;3.47;;
19402;SDS011;9837;48.888;8.998;2024-01-27T00:52:41;8.47;;;2.80;;
19402;SDS011;9837;48.888;8.998;2024-01-27T00:55:07;5.93;;;2.73;;
19402;SDS011;9837;48.888;8.998;2024-01-27T00:57:32;7.17;;;3.10;;
19402;SDS011;9837;48.888;8.998;2024-01-27T00:59:58;6.57;;;2.40;;
19402;SDS011;9837;48.888;8.998;2024-01-27T01:02:23;7.37;;;3.33;;
19402;SDS011;9837;48.888;8.998;2024-01-27T01:04:49;8.63;;;2.77;;
19402;SDS011;9837;48.888;8.998;2024-01-27T01:07:14;6.70;;;2.53;;
19402;SDS011;9837;48.888;8.998;2024-01-27T01:09:40;7.63;;;2.57;;
19402;SDS011;9837;48.888;8.998;2024-01-27T01:12:06;10.60;;;2.87;;
19402;SDS011;9837;48.888;8.998;2024-01-27T01:14:31;8.33;;;2.70;;
19402;SDS011;9837;48.888;8.998;2024-01-27T01:16:57;5.13;;;2.50;;
19402;SDS011;9837;48.888;8.998;2024-01-27T01:19:23;4.37;;;2.57;;
19402;SDS011;9837;48.888;8.998;2024-01-27T01:21:48;9.67;;;2.63;;
19402;SDS011;9837;48.888;8.998;2024-01-27T01:24:14;4.23;;;2.47;;
19402;SDS011;9837;48.888;8.998;2024-01-27T01:26:39;8.63;;;3.20;;
19402;SDS011;9837;48.888;8.998;2024-01-27T01:29:05;8.50;;;3.30;;
19402;SDS011;9837;48.888;8.998;2024-01-27T01:31:30;6.20;;;3.00;;
19402;SDS011;9837;48.888;8.998;2024-01-27T01:33:56;11.10;;;3.70;;
19402;SDS011;9837;48.888;8.998;2024-01-27T01:36:22;6.20;;;3.20;;
19402;SDS011;9837;48.888;8.998;2024-01-27T01:38:47;11.20;;;3.30;;
19402;SDS011;9837;48.888;8.998;2024-01-27T01:41:13;10.87;;;3.23;;
19402;SDS011;9837;48.888;8.998;2024-01-27T01:43:38;10.73;;;3.03;;
19402;SDS011;9837;48.888;8.998;2024-01-27T01:46:04;9.43;;;3.07;;
19402;SDS011;9837;48.888;8.998;2024-01-27T01:48:30;7.40;;;2.80;;
19402;SDS011;9837;48.888;8.998;2024-01-27T01:50:55;9.03;;;3.30;;
19402;SDS011;9837;48.888;8.998;2024-01-27T01:53:21;11.47;;;3.73;;
19402;SDS011;9837;48.888;8.998;2024-01-27T01:55:48;10.00;;;3.53;;
19402;SDS011;9837;48.888;8.998;2024-01-27T01:58:15;7.17;;;2.80;;
19402;SDS011;9837;48.888;8.998;2024-01-27T02:00:41;11.13;;;3.10;;
19402;SDS011;9837;48.888;8.998;2024-01-27T02:03:10;7.90;;;3.37;;
19402;SDS011;9837;48.888;8.998;2024-01-27T02:05:37;5.47;;;3.27;;
19402;SDS011;9837;48.888;8.998;2024-01-27T02:08:03;7.87;;;2.97;;
19402;SDS011;9837;48.888;8.998;2024-01-27T02:10:29;14.00;;;3.47;;
19402;SDS011;9837;48.888;8.998;2024-01-27T02:13:01;7.27;;;2.90;;
19402;SDS011;9837;48.888;8.998;2024-01-27T02:15:40;7.90;;;3.13;;
19402;SDS011;9837;48.888;8.998;2024-01-27T02:18:06;12.30;;;3.70;;
19402;SDS011;9837;48.888;8.998;2024-01-27T02:20:31;12.20;;;3.43;;
19402;SDS011;9837;48.888;8.998;2024-01-27T02:22:57;5.13;;;3.07;;
19402;SDS011;9837;48.888;8.998;2024-01-27T02:25:23;7.73;;;2.63;;
19402;SDS011;9837;48.888;8.998;2024-01-27T02:27:48;7.03;;;2.60;;
19402;SDS011;9837;48.888;8.998;2024-01-27T02:30:14;7.47;;;2.63;;
19402;SDS011;9837;48.888;8.998;2024-01-27T02:32:39;8.13;;;2.90;;
19402;SDS011;9837;48.888;8.998;2024-01-27T02:35:05;3.60;;;2.30;;
19402;SDS011;9837;48.888;8.998;2024-01-27T02:37:31;7.00;;;2.63;;
19402;SDS011;9837;48.888;8.998;2024-01-27T02:39:56;6.20;;;3.20;;
19402;SDS011;9837;48.888;8.998;2024-01-27T02:42:22;7.03;;;3.00;;
19402;SDS011;9837;48.888;8.998;2024-01-27T02:44:48;7.00;;;2.80;;
19402;SDS011;9837;48.888;8.998;2024-01-27T02:47:14;11.13;;;2.93;;
19402;SDS011;9837;48.888;8.998;2024-01-27T02:49:39;13.10;;;2.93;;
19402;SDS011;9837;48.888;8.998;2024-01-27T02:52:05;12.80;;;3.30;;
19402;SDS011;9837;48.888;8.998;2024-01-27T02:54:31;12.77;;;3.47;;
19402;SDS011;9837;48.888;8.998;2024-01-27T02:56:56;7.50;;;3.30;;
19402;SDS011;9837;48.888;8.998;2024-01-27T02:59:22;8.60;;;3.53;;
19402;SDS011;9837;48.888;8.998;2024-01-27T03:01:47;10.93;;;3.47;;
19402;SDS011;9837;48.888;8.998;2024-01-27T03:04:13;8.50;;;3.47;;
19402;SDS011;9837;48.888;8.998;2024-01-27T03:06:39;7.30;;;3.07;;
19402;SDS011;9837;48.888;8.998;2024-01-27T03:09:04;10.70;;;3.60;;
19402;SDS011;9837;48.888;8.998;2024-01-27T03:11:30;9.43;;;3.70;;
19402;SDS011;9837;48.888;8.998;2024-01-27T03:13:56;11.27;;;3.37;;
19402;SDS011;9837;48.888;8.998;2024-01-27T03:16:21;13.20;;;3.50;;
19402;SDS011;9837;48.888;8.998;2024-01-27T03:18:47;5.50;;;3.50;;
19402;SDS011;9837;48.888;8.998;2024-01-27T03:21:12;8.90;;;3.83;;
19402;SDS011;9837;48.888;8.998;2024-01-27T03:23:38;11.40;;;3.40;;
19402;SDS011;9837;48.888;8.998;2024-01-27T03:26:03;5.13;;;3.10;;
19402;SDS011;9837;48.888;8.998;2024-01-27T03:28:29;8.30;;;2.97;;
19402;SDS011;9837;48.888;8.998;2024-01-27T03:30:55;8.83;;;2.90;;
19402;SDS011;9837;48.888;8.998;2024-01-27T03:33:20;7.77;;;2.97;;
19402;SDS011;9837;48.888;8.998;2024-01-27T03:35:47;8.70;;;3.50;;
19402;SDS011;9837;48.888;8.998;2024-01-27T03:38:13;14.43;;;3.73;;
19402;SDS011;9837;48.888;8.998;2024-01-27T03:40:38;12.80;;;3.57;;
19402;SDS011;9837;48.888;8.998;2024-01-27T03:43:04;4.43;;;3.03;;
19402;SDS011;9837;48.888;8.998;2024-01-27T03:45:29;7.80;;;3.07;;
19402;SDS011;9837;48.888;8.998;2024-01-27T03:47:55;5.23;;;2.93;;
19402;SDS011;9837;48.888;8.998;2024-01-27T03:50:21;10.33;;;3.03;;
19402;SDS011;9837;48.888;8.998;2024-01-27T03:52:46;14.80;;;3.17;;
19402;SDS011;9837;48.888;8.998;2024-01-27T03:55:11;5.97;;;2.53;;
19402;SDS011;9837;48.888;8.998;2024-01-27T03:57:37;11.37;;;2.90;;
19402;SDS011;9837;48.888;8.998;2024-01-27T04:00:03;12.00;;;3.17;;
19402;SDS011;9837;48.888;8.998;2024-01-27T04:02:29;5.30;;;2.40;;
19402;SDS011;9837;48.888;8.998;2024-01-27T04:04:54;14.07;;;3.13;;
19402;SDS011;9837;48.888;8.998;2024-01-27T04:07:20;9.47;;;2.83;;
19402;SDS011;9837;48.888;8.998;2024-01-27T04:09:46;6.37;;;2.80;;
19402;SDS011;9837;48.888;8.998;2024-01-27T04:12:11;10.23;;;2.93;;
19402;SDS011;9837;48.888;8.998;2024-01-27T04:14:37;7.37;;;3.00;;
19402;SDS011;9837;48.888;8.998;2024-01-27T04:17:02;10.53;;;3.47;;
19402;SDS011;9837;48.888;8.998;2024-01-27T04:19:28;4.93;;;2.80;;
19402;SDS011;9837;48.888;8.998;2024-01-27T04:21:53;7.70;;;2.63;;
19402;SDS011;9837;48.888;8.998;2024-01-27T04:24:19;10.73;;;3.50;;
19402;SDS011;9837;48.888;8.998;2024-01-27T04:26:45;7.63;;;2.50;;
19402;SDS011;9837;48.888;8.998;2024-01-27T04:29:10;9.33;;;2.73;;
19402;SDS011;9837;48.888;8.998;2024-01-27T04:31:40;12.77;;;2.80;;
19402;SDS011;9837;48.888;8.998;2024-01-27T04:34:06;12.70;;;3.27;;
19402;SDS011;9837;48.888;8.998;2024-01-27T04:36:32;12.50;;;2.80;;
19402;SDS011;9837;48.888;8.998;2024-01-27T04:38:58;12.67;;;3.40;;
19402;SDS011;9837;48.888;8.998;2024-01-27T04:41:23;6.27;;;2.27;;
19402;SDS011;9837;48.888;8.998;2024-01-27T04:43:49;8.47;;;3.10;;
19402;SDS011;9837;48.888;8.998;2024-01-27T04:46:15;9.70;;;2.90;;
19402;SDS011;9837;48.888;8.998;2024-01-27T04:48:40;7.27;;;2.40;;
19402;SDS011;9837;48.888;8.998;2024-01-27T04:51:06;10.43;;;2.80;;
19402;SDS011;9837;48.888;8.998;2024-01-27T04:53:31;12.23;;;3.07;;
19402;SDS011;9837;48.888;8.998;2024-01-27T04:55:57;7.77;;;2.97;;
19402;SDS011;9837;48.888;8.998;2024-01-27T04:58:23;11.67;;;3.03;;
19402;SDS011;9837;48.888;8.998;2024-01-27T05:00:48;6.77;;;2.53;;
19402;SDS011;9837;48.888;8.998;2024-01-27T05:03:14;14.70;;;3.30;;
19402;SDS011;9837;48.888;8.998;2024-01-27T05:05:41;14.07;;;3.33;;
19402;SDS011;9837;48.888;8.998;2024-01-27T05:08:07;14.63;;;3.97;;
19402;SDS011;9837;48.888;8.998;2024-01-27T05:10:33;8.37;;;3.30;;
19402;SDS011;9837;48.888;8.998;2024-01-27T05:12:58;9.23;;;3.03;;
19402;SDS011;9837;48.888;8.998;2024-01-27T05:15:24;6.53;;;3.13;;
19402;SDS011;9837;48.888;8.998;2024-01-27T05:17:50;12.00;;;2.60;;
19402;SDS011;9837;48.888;8.998;2024-01-27T05:20:15;12.83;;;3.27;;
19402;SDS011;9837;48.888;8.998;2024-01-27T05:22:42;15.17;;;3.83;;
19402;SDS011;9837;48.888;8.998;2024-01-27T05:25:07;5.37;;;2.93;;
19402;SDS011;9837;48.888;8.998;2024-01-27T05:27:33;6.87;;;2.83;;
19402;SDS011;9837;48.888;8.998;2024-01-27T05:29:58;11.67;;;3.90;;
19402;SDS011;9837;48.888;8.998;2024-01-27T05:32:24;9.70;;;4.70;;
19402;SDS011;9837;48.888;8.998;2024-01-27T05:34:49;12.40;;;5.33;;
19402;SDS011;9837;48.888;8.998;2024-01-27T05:37:15;12.37;;;6.47;;
19402;SDS011;9837;48.888;8.998;2024-01-27T05:39:40;16.17;;;6.90;;
19402;SDS011;9837;48.888;8.998;2024-01-27T05:42:06;16.23;;;7.60;;
19402;SDS011;9837;48.888;8.998;2024-01-27T05:44:31;17.40;;;6.40;;
19402;SDS011;9837;48.888;8.998;2024-01-27T05:46:57;12.23;;;4.70;;
19402;SDS011;9837;48.888;8.998;2024-01-27T05:49:23;11.73;;;5.00;;
19402;SDS011;9837;48.888;8.998;2024-01-27T05:51:48;10.90;;;4.67;;
19402;SDS011;9837;48.888;8.998;2024-01-27T05:54:15;11.23;;;4.07;;
19402;SDS011;9837;48.888;8.998;2024-01-27T05:56:42;11.33;;;3.57;;
19402;SDS011;9837;48.888;8.998;2024-01-27T05:59:07;13.20;;;3.40;;
19402;SDS011;9837;48.888;8.998;2024-01-27T06:01:33;7.87;;;3.57;;
19402;SDS011;9837;48.888;8.998;2024-01-27T06:03:58;7.97;;;3.17;;
19402;SDS011;9837;48.888;8.998;2024-01-27T06:06:24;11.97;;;3.80;;
19402;SDS011;9837;48.888;8.998;2024-01-27T06:08:49;10.20;;;3.83;;
19402;SDS011;9837;48.888;8.998;2024-01-27T06:11:22;8.03;;;3.00;;
19402;SDS011;9837;48.888;8.998;2024-01-27T06:13:49;16.97;;;3.10;;
19402;SDS011;9837;48.888;8.998;2024-01-27T06:16:15;6.13;;;3.00;;
19402;SDS011;9837;48.888;8.998;2024-01-27T06:18:42;11.10;;;2.60;;
19402;SDS011;9837;48.888;8.998;2024-01-27T06:21:07;6.57;;;3.10;;
19402;SDS011;9837;48.888;8.998;2024-01-27T06:23:33;11.17;;;3.23;;
19402;SDS011;9837;48.888;8.998;2024-01-27T06:25:59;9.73;;;3.03;;
19402;SDS011;9837;48.888;8.998;2024-01-27T06:28:29;8.43;;;3.17;;
19402;SDS011;9837;48.888;8.998;2024-01-27T06:30:54;9.83;;;3.13;;
19402;SDS011;9837;48.888;8.998;2024-01-27T06:33:20;12.63;;;3.20;;
19402;SDS011;9837;48.888;8.998;2024-01-27T06:35:45;7.50;;;3.17;;
19402;SDS011;9837;48.888;8.998;2024-01-27T06:38:11;13.17;;;3.37;;
19402;SDS011;9837;48.888;8.998;2024-01-27T06:40:36;10.50;;;4.13;;
19402;SDS011;9837;48.888;8.998;2024-01-27T06:43:02;11.70;;;3.40;;
19402;SDS011;9837;48.888;8.998;2024-01-27T06:45:27;13.47;;;3.30;;
19402;SDS011;9837;48.888;8.998;2024-01-27T06:47:53;15.40;;;3.53;;
19402;SDS011;9837;48.888;8.998;2024-01-27T06:50:18;9.97;;;3.63;;
19402;SDS011;9837;48.888;8.998;2024-01-27T06:52:44;7.83;;;2.93;;
19402;SDS011;9837;48.888;8.998;2024-01-27T06:55:11;14.67;;;2.60;;
19402;SDS011;9837;48.888;8.998;2024-01-27T06:57:36;9.67;;;3.07;;
19402;SDS011;9837;48.888;8.998;2024-01-27T07:00:02;22.37;;;3.90;;
19402;SDS011;9837;48.888;8.998;2024-01-27T07:02:28;8.27;;;3.03;;
19402;SDS011;9837;48.888;8.998;2024-01-27T07:04:54;7.27;;;3.63;;
19402;SDS011;9837;48.888;8.998;2024-01-27T07:07:21;5.43;;;2.83;;
19402;SDS011;9837;48.888;8.998;2024-01-27T07:09:50;8.80;;;3.37;;
19402;SDS011;9837;48.888;8.998;2024-01-27T07:12:15;9.53;;;3.33;;
19402;SDS011;9837;48.888;8.998;2024-01-27T07:14:41;9.33;;;3.20;;
19402;SDS011;9837;48.888;8.998;2024-01-27T07:17:06;12.03;;;3.10;;
19402;SDS011;9837;48.888;8.998;2024-01-27T07:19:32;9.97;;;3.40;;
19402;SDS011;9837;48.888;8.998;2024-01-27T07:21:58;10.27;;;3.37;;
19402;SDS011;9837;48.888;8.998;2024-01-27T07:24:24;8.43;;;2.70;;
19402;SDS011;9837;48.888;8.998;2024-01-27T07:26:51;12.33;;;3.47;;
19402;SDS011;9837;48.888;8.998;2024-01-27T07:29:16;11.30;;;3.67;;
19402;SDS011;9837;48.888;8.998;2024-01-27T07:31:42;11.73;;;3.80;;
19402;SDS011;9837;48.888;8.998;2024-01-27T07:34:07;14.37;;;4.00;;
19402;SDS011;9837;48.888;8.998;2024-01-27T07:36:33;11.53;;;4.37;;
19402;SDS011;9837;48.888;8.998;2024-01-27T07:38:59;11.00;;;4.33;;
19402;SDS011;9837;48.888;8.998;2024-01-27T07:41:25;9.90;;;3.73;;
19402;SDS011;9837;48.888;8.998;2024-01-27T07:43:50;12.23;;;5.33;;
19402;SDS011;9837;48.888;8.998;2024-01-27T07:46:16;24.17;;;9.97;;
19402;SDS011;9837;48.888;8.998;2024-01-27T07:48:41;15.87;;;5.97;;
19402;SDS011;9837;48.888;8.998;2024-01-27T07:51:07;8.20;;;3.57;;
19402;SDS011;9837;48.888;8.998;2024-01-27T07:53:33;9.50;;;3.53;;
19402;SDS011;9837;48.888;8.998;2024-01-27T07:55:58;9.10;;;3.60;;
19402;SDS011;9837;48.888;8.998;2024-01-27T07:58:24;14.33;;;4.33;;
19402;SDS011;9837;48.888;8.998;2024-01-27T08:00:50;10.40;;;3.50;;
19402;SDS011;9837;48.888;8.998;2024-01-27T08:03:16;12.63;;;4.27;;
19402;SDS011;9837;48.888;8.998;2024-01-27T08:05:41;18.73;;;5.73;;
19402;SDS011;9837;48.888;8.998;2024-01-27T08:08:07;11.27;;;4.57;;
19402;SDS011;9837;48.888;8.998;2024-01-27T08:10:32;13.40;;;5.23;;
19402;SDS011;9837;48.888;8.998;2024-01-27T08:12:58;12.73;;;5.27;;
19402;SDS011;9837;48.888;8.998;2024-01-27T08:15:24;11.50;;;3.80;;
19402;SDS011;9837;48.888;8.998;2024-01-27T08:17:49;8.77;;;3.67;;
19402;SDS011;9837;48.888;8.998;2024-01-27T08:20:15;10.53;;;3.40;;
19402;SDS011;9837;48.888;8.998;2024-01-27T08:22:40;8.07;;;3.47;;
19402;SDS011;9837;48.888;8.998;2024-01-27T08:25:06;6.90;;;3.13;;
19402;SDS011;9837;48.888;8.998;2024-01-27T08:27:32;7.53;;;4.27;;
19402;SDS011;9837;48.888;8.998;2024-01-27T08:29:57;10.43;;;4.50;;
19402;SDS011;9837;48.888;8.998;2024-01-27T08:32:23;10.10;;;4.33;;
19402;SDS011;9837;48.888;8.998;2024-01-27T08:34:49;8.53;;;3.57;;
19402;SDS011;9837;48.888;8.998;2024-01-27T08:37:15;12.87;;;4.43;;
19402;SDS011;9837;48.888;8.998;2024-01-27T08:39:45;6.87;;;3.70;;
19402;SDS011;9837;48.888;8.998;2024-01-27T08:42:11;7.63;;;3.67;;
19402;SDS011;9837;48.888;8.998;2024-01-27T08:44:37;14.30;;;5.90;;
19402;SDS011;9837;48.888;8.998;2024-01-27T08:47:03;8.30;;;3.73;;
19402;SDS011;9837;48.888;8.998;2024-01-27T08:49:29;9.40;;;3.40;;
19402;SDS011;9837;48.888;8.998;2024-01-27T08:51:55;10.40;;;5.00;;
19402;SDS011;9837;48.888;8.998;2024-01-27T08:54:20;15.33;;;5.67;;
19402;SDS011;9837;48.888;8.998;2024-01-27T08:56:46;15.63;;;5.10;;
19402;SDS011;9837;48.888;8.998;2024-01-27T08:59:12;11.50;;;4.53;;
19402;SDS011;9837;48.888;8.998;2024-01-27T09:01:37;8.93;;;3.60;;
19402;SDS011;9837;48.888;8.998;2024-01-27T09:04:03;11.30;;;3.10;;
19402;SDS011;9837;48.888;8.998;2024-01-27T09:06:28;7.60;;;3.10;;
19402;SDS011;9837;48.888;8.998;2024-01-27T09:08:54;9.77;;;3.47;;
19402;SDS011;9837;48.888;8.998;2024-01-27T09:11:20;10.60;;;3.43;;
19402;SDS011;9837;48.888;8.998;2024-01-27T09:13:47;15.10;;;5.30;;
19402;SDS011;9837;48.888;8.998;2024-01-27T09:16:13;8.77;;;3.80;;
19402;SDS011;9837;48.888;8.998;2024-01-27T09:18:41;9.00;;;5.00;;
19402;SDS011;9837;48.888;8.998;2024-01-27T09:21:06;7.97;;;3.53;;
19402;SDS011;9837;48.888;8.998;2024-01-27T09:23:32;6.53;;;3.50;;
19402;SDS011;9837;48.888;8.998;2024-01-27T09:25:57;10.90;;;4.13;;
19402;SDS011;9837;48.888;8.998;2024-01-27T09:28:23;12.73;;;4.37;;
19402;SDS011;9837;48.888;8.998;2024-01-27T09:30:49;8.37;;;4.33;;
19402;SDS011;9837;48.888;8.998;2024-01-27T09:33:14;12.30;;;4.27;;
19402;SDS011;9837;48.888;8.998;2024-01-27T09:35:42;11.03;;;3.87;;
19402;SDS011;9837;48.888;8.998;2024-01-27T09:38:07;11.57;;;4.37;;
19402;SDS011;9837;48.888;8.998;2024-01-27T09:40:36;10.03;;;5.07;;
19402;SDS011;9837;48.888;8.998;2024-01-27T09:43:02;14.73;;;5.07;;
19402;SDS011;9837;48.888;8.998;2024-01-27T09:45:27;11.37;;;5.33;;
19402;SDS011;9837;48.888;8.998;2024-01-27T09:47:53;10.30;;;4.57;;
19402;SDS011;9837;48.888;8.998;2024-01-27T09:50:21;7.30;;;4.80;;
19402;SDS011;9837;48.888;8.998;2024-01-27T09:52:48;10.17;;;4.43;;
19402;SDS011;9837;48.888;8.998;2024-01-27T09:55:14;13.03;;;4.87;;
19402;SDS011;9837;48.888;8.998;2024-01-27T09:57:39;9.67;;;4.53;;
19402;SDS011;9837;48.888;8.998;2024-01-27T10:00:05;11.00;;;4.80;;
19402;SDS011;9837;48.888;8.998;2024-01-27T10:02:34;12.33;;;5.50;;
19402;SDS011;9837;48.888;8.998;2024-01-27T10:05:01;14.00;;;5.80;;
19402;SDS011;9837;48.888;8.998;2024-01-27T10:07:27;11.73;;;4.30;;
19402;SDS011;9837;48.888;8.998;2024-01-27T10:09:53;10.80;;;4.40;;
19402;SDS011;9837;48.888;8.998;2024-01-27T10:12:18;8.23;;;3.80;;
19402;SDS011;9837;48.888;8.998;2024-01-27T10:14:47;11.90;;;3.73;;
19402;SDS011;9837;48.888;8.998;2024-01-27T10:17:21;9.10;;;3.93;;
19402;SDS011;9837;48.888;8.998;2024-01-27T10:20:01;11.43;;;5.10;;
19402;SDS011;9837;48.888;8.998;2024-01-27T10:22:28;11.37;;;4.60;;
19402;SDS011;9837;48.888;8.998;2024-01-27T10:24:54;17.23;;;4.90;;
19402;SDS011;9837;48.888;8.998;2024-01-27T10:27:20;11.67;;;4.80;;
19402;SDS011;9837;48.888;8.998;2024-01-27T10:29:53;8.57;;;4.40;;
19402;SDS011;9837;48.888;8.998;2024-01-27T10:32:19;11.33;;;4.53;;
19402;SDS011;9837;48.888;8.998;2024-01-27T10:34:45;9.60;;;4.50;;
19402;SDS011;9837;48.888;8.998;2024-01-27T10:37:16;9.70;;;4.30;;
19402;SDS011;9837;48.888;8.998;2024-01-27T10:39:48;11.67;;;4.67;;
19402;SDS011;9837;48.888;8.998;2024-01-27T10:42:14;9.77;;;4.17;;
19402;SDS011;9837;48.888;8.998;2024-01-27T10:44:40;10.80;;;5.17;;
19402;SDS011;9837;48.888;8.998;2024-01-27T10:47:08;12.73;;;5.10;;
19402;SDS011;9837;48.888;8.998;2024-01-27T10:49:41;6.93;;;4.30;;
19402;SDS011;9837;48.888;8.998;2024-01-27T10:52:09;12.10;;;4.57;;
19402;SDS011;9837;48.888;8.998;2024-01-27T10:54:39;11.37;;;5.00;;
19402;SDS011;9837;48.888;8.998;2024-01-27T10:57:06;13.03;;;4.90;;
19402;SDS011;9837;48.888;8.998;2024-01-27T10:59:34;8.23;;;4.60;;
19402;SDS011;9837;48.888;8.998;2024-01-27T11:02:00;11.63;;;4.40;;
19402;SDS011;9837;48.888;8.998;2024-01-27T11:04:28;9.80;;;4.53;;
19402;SDS011;9837;48.888;8.998;2024-01-27T11:06:54;20.90;;;5.80;;
19402;SDS011;9837;48.888;8.998;2024-01-27T11:09:24;14.67;;;4.83;;
19402;SDS011;9837;48.888;8.998;2024-01-27T11:11:50;13.67;;;5.20;;
19402;SDS011;9837;48.888;8.998;2024-01-27T11:14:16;12.37;;;5.10;;
19402;SDS011;9837;48.888;8.998;2024-01-27T11:16:42;13.03;;;5.33;;
19402;SDS011;9837;48.888;8.998;2024-01-27T11:19:12;16.57;;;5.80;;
19402;SDS011;9837;48.888;8.998;2024-01-27T11:21:38;9.80;;;4.70;;
19402;SDS011;9837;48.888;8.998;2024-01-27T11:24:16;15.63;;;5.33;;
19402;SDS011;9837;48.888;8.998;2024-01-27T11:26:42;13.37;;;5.20;;
19402;SDS011;9837;48.888;8.998;2024-01-27T11:29:09;10.40;;;5.20;;
19402;SDS011;9837;48.888;8.998;2024-01-27T11:31:43;11.93;;;5.80;;
19402;SDS011;9837;48.888;8.998;2024-01-27T11:34:10;11.47;;;6.00;;
19402;SDS011;9837;48.888;8.998;2024-01-27T11:36:43;11.23;;;6.10;;
19402;SDS011;9837;48.888;8.998;2024-01-27T11:39:28;12.07;;;6.17;;
19402;SDS011;9837;48.888;8.998;2024-01-27T11:42:04;14.00;;;6.10;;
19402;SDS011;9837;48.888;8.998;2024-01-27T11:44:31;13.30;;;6.00;;
19402;SDS011;9837;48.888;8.998;2024-01-27T11:46:58;16.77;;;5.87;;
19402;SDS011;9837;48.888;8.998;2024-01-27T11:49:24;11.90;;;5.03;;
19402;SDS011;9837;48.888;8.998;2024-01-27T11:51:50;14.70;;;5.27;;
19402;SDS011;9837;48.888;8.998;2024-01-27T11:54:15;15.43;;;5.63;;
19402;SDS011;9837;48.888;8.998;2024-01-27T11:56:41;15.67;;;6.80;;
19402;SDS011;9837;48.888;8.998;2024-01-27T11:59:07;10.87;;;5.17;;
19402;SDS011;9837;48.888;8.998;2024-01-27T12:01:32;11.90;;;5.80;;
19402;SDS011;9837;48.888;8.998;2024-01-27T12:03:58;9.33;;;5.10;;
19402;SDS011;9837;48.888;8.998;2024-01-27T12:06:24;13.80;;;5.53;;
19402;SDS011;9837;48.888;8.998;2024-01-27T12:08:52;13.57;;;5.77;;
19402;SDS011;9837;48.888;8.998;2024-01-27T12:11:18;15.77;;;5.43;;
19402;SDS011;9837;48.888;8.998;2024-01-27T12:13:44;13.23;;;5.80;;
19402;SDS011;9837;48.888;8.998;2024-01-27T12:16:09;10.90;;;6.40;;
19402;SDS011;9837;48.888;8.998;2024-01-27T12:18:35;12.40;;;5.63;;
19402;SDS011;9837;48.888;8.998;2024-01-27T12:21:01;13.67;;;6.10;;
19402;SDS011;9837;48.888;8.998;2024-01-27T12:23:26;12.20;;;6.33;;
19402;SDS011;9837;48.888;8.998;2024-01-27T12:25:52;18.27;;;5.53;;
19402;SDS011;9837;48.888;8.998;2024-01-27T12:28:19;11.10;;;5.47;;
19402;SDS011;9837;48.888;8.998;2024-01-27T12:30:45;16.37;;;5.37;;
19402;SDS011;9837;48.888;8.998;2024-01-27T12:33:11;13.43;;;5.27;;
19402;SDS011;9837;48.888;8.998;2024-01-27T12:35:37;7.23;;;4.83;;
19402;SDS011;9837;48.888;8.998;2024-01-27T12:38:05;10.53;;;5.43;;
19402;SDS011;9837;48.888;8.998;2024-01-27T12:40:31;8.77;;;5.00;;
19402;SDS011;9837;48.888;8.998;2024-01-27T12:42:56;14.87;;;4.80;;
19402;SDS011;9837;48.888;8.998;2024-01-27T12:45:22;9.43;;;4.83;;
19402;SDS011;9837;48.888;8.998;2024-01-27T12:47:47;7.93;;;4.67;;
19402;SDS011;9837;48.888;8.998;2024-01-27T12:50:13;10.83;;;5.07;;
19402;SDS011;9837;48.888;8.998;2024-01-27T12:52:39;10.40;;;4.10;;
19402;SDS011;9837;48.888;8.998;2024-01-27T12:55:05;8.60;;;4.33;;
19402;SDS011;9837;48.888;8.998;2024-01-27T12:57:31;11.70;;;4.43;;
19402;SDS011;9837;48.888;8.998;2024-01-27T12:59:57;6.33;;;3.70;;
19402;SDS011;9837;48.888;8.998;2024-01-27T13:02:23;9.53;;;3.80;;
19402;SDS011;9837;48.888;8.998;2024-01-27T13:04:48;8.30;;;4.20;;
19402;SDS011;9837;48.888;8.998;2024-01-27T13:07:14;6.60;;;3.47;;
19402;SDS011;9837;48.888;8.998;2024-01-27T13:09:39;7.77;;;3.60;;
19402;SDS011;9837;48.888;8.998;2024-01-27T13:12:05;6.43;;;3.43;;
19402;SDS011;9837;48.888;8.998;2024-01-27T13:14:31;6.80;;;3.17;;
19402;SDS011;9837;48.888;8.998;2024-01-27T13:16:56;7.80;;;2.90;;
19402;SDS011;9837;48.888;8.998;2024-01-27T13:19:24;6.97;;;3.23;;
19402;SDS011;9837;48.888;8.998;2024-01-27T13:21:50;6.93;;;2.40;;
19402;SDS011;9837;48.888;8.998;2024-01-27T13:24:15;4.50;;;2.47;;
19402;SDS011;9837;48.888;8.998;2024-01-27T13:26:41;5.33;;;2.57;;
19402;SDS011;9837;48.888;8.998;2024-01-27T13:29:07;4.67;;;2.90;;
19402;SDS011;9837;48.888;8.998;2024-01-27T13:31:33;10.20;;;3.73;;
19402;SDS011;9837;48.888;8.998;2024-01-27T13:33:59;9.00;;;3.50;;
19402;SDS011;9837;48.888;8.998;2024-01-27T13:36:26;10.30;;;3.57;;
19402;SDS011;9837;48.888;8.998;2024-01-27T13:38:51;16.07;;;3.80;;
19402;SDS011;9837;48.888;8.998;2024-01-27T13:41:17;8.37;;;3.90;;
19402;SDS011;9837;48.888;8.998;2024-01-27T13:43:43;9.97;;;3.53;;
19402;SDS011;9837;48.888;8.998;2024-01-27T13:46:09;11.07;;;3.87;;
19402;SDS011;9837;48.888;8.998;2024-01-27T13:48:35;13.33;;;3.73;;
19402;SDS011;9837;48.888;8.998;2024-01-27T13:51:02;6.10;;;2.90;;
19402;SDS011;9837;48.888;8.998;2024-01-27T13:53:27;6.83;;;3.33;;
19402;SDS011;9837;48.888;8.998;2024-01-27T13:55:53;6.13;;;2.77;;
19402;SDS011;9837;48.888;8.998;2024-01-27T13:58:18;6.30;;;3.07;;
19402;SDS011;9837;48.888;8.998;2024-01-27T14:00:44;10.03;;;3.40;;
19402;SDS011;9837;48.888;8.998;2024-01-27T14:03:10;10.33;;;3.77;;
19402;SDS011;9837;48.888;8.998;2024-01-27T14:05:36;11.20;;;3.57;;
19402;SDS011;9837;48.888;8.998;2024-01-27T14:08:03;11.00;;;3.23;;
19402;SDS011;9837;48.888;8.998;2024-01-27T14:10:29;7.07;;;3.57;;
19402;SDS011;9837;48.888;8.998;2024-01-27T14:12:55;7.77;;;3.80;;
19402;SDS011;9837;48.888;8.998;2024-01-27T14:15:20;8.73;;;4.70;;
19402;SDS011;9837;48.888;8.998;2024-01-27T14:17:46;15.23;;;3.67;;
19402;SDS011;9837;48.888;8.998;2024-01-27T14:20:12;3.70;;;3.03;;
19402;SDS011;9837;48.888;8.998;2024-01-27T14:22:38;6.33;;;3.50;;
19402;SDS011;9837;48.888;8.998;2024-01-27T14:25:03;7.60;;;3.77;;
19402;SDS011;9837;48.888;8.998;2024-01-27T14:27:30;9.37;;;4.10;;
19402;SDS011;9837;48.888;8.998;2024-01-27T14:29:55;8.27;;;3.67;;
19402;SDS011;9837;48.888;8.998;2024-01-27T14:32:21;12.07;;;4.00;;
19402;SDS011;9837;48.888;8.998;2024-01-27T14:34:47;8.03;;;3.13;;
19402;SDS011;9837;48.888;8.998;2024-01-27T14:37:14;11.67;;;3.50;;
19402;SDS011;9837;48.888;8.998;2024-01-27T14:39:41;8.97;;;3.47;;
19402;SDS011;9837;48.888;8.998;2024-01-27T14:42:13;9.03;;;4.00;;
19402;SDS011;9837;48.888;8.998;2024-01-27T14:44:40;7.80;;;3.57;;
19402;SDS011;9837;48.888;8.998;2024-01-27T14:47:06;9.00;;;4.10;;
19402;SDS011;9837;48.888;8.998;2024-01-27T14:49:33;13.17;;;3.80;;